createdAt,value
2017-11-25T00:00:15.651Z,1007.45
2017-11-25T00:01:25.373Z,1007.44
2017-11-25T00:02:35.083Z,1007.4
2017-11-25T00:03:44.805Z,1007.44
2017-11-25T00:04:54.784Z,1007.44
2017-11-25T00:06:04.770Z,1007.45
2017-11-25T00:07:14.222Z,1007.51
2017-11-25T00:08:24.253Z,1007.52
2017-11-25T00:09:34.249Z,1007.51
2017-11-25T00:10:43.951Z,1007.5
2017-11-25T00:11:53.675Z,1007.48
2017-11-25T00:13:03.120Z,1007.47
2017-11-25T00:14:12.837Z,1007.51
2017-11-25T00:15:22.545Z,1007.6
2017-11-25T00:16:32.532Z,1007.61
2017-11-25T00:17:42.235Z,1007.58
2017-11-25T00:18:51.687Z,1007.6
2017-11-25T00:20:01.125Z,1007.62
2017-11-25T00:21:10.841Z,1007.63
2017-11-25T00:22:20.566Z,1007.64
2017-11-25T00:23:30.272Z,1007.69
2017-11-25T00:24:39.458Z,1007.63
2017-11-25T00:25:48.912Z,1007.6
2017-11-25T00:26:58.898Z,1007.63
2017-11-25T00:28:08.608Z,1007.55
2017-11-25T00:29:18.042Z,1007.5
2017-11-25T00:30:27.806Z,1007.44
2017-11-25T00:31:37.526Z,1007.43
2017-11-25T00:32:47.508Z,1007.38
2017-11-25T00:33:56.961Z,1007.33
2017-11-25T00:35:06.414Z,1007.34
2017-11-25T00:36:16.133Z,1007.37
2017-11-25T00:37:26.091Z,1007.28
2017-11-25T00:38:35.549Z,1007.21
2017-11-25T00:39:45.517Z,1007.27
2017-11-25T00:40:55.493Z,1007.26
2017-11-25T00:42:05.460Z,1007.24
2017-11-25T00:43:15.423Z,1007.26
2017-11-25T00:44:25.398Z,1007.24
2017-11-25T00:45:34.859Z,1007.23
2017-11-25T00:46:44.563Z,1007.21
2017-11-25T00:47:54.612Z,1007.17
2017-11-25T00:49:04.609Z,1007.14
2017-11-25T00:50:14.596Z,1007.13
2017-11-25T00:51:24.298Z,1007.13
2017-11-25T00:52:34.009Z,1007.15
2017-11-25T00:53:43.447Z,1007.13
2017-11-25T00:54:53.409Z,1007.14
2017-11-25T00:56:03.384Z,1007.12
2017-11-25T00:57:13.353Z,1007.17
2017-11-25T00:58:23.112Z,1007.23
2017-11-25T00:59:33.101Z,1007.19
2017-11-25T01:00:43.119Z,1007.19
2017-11-25T01:01:53.095Z,1007.21
2017-11-25T01:03:02.566Z,1007.19
2017-11-25T01:04:12.015Z,1007.22
2017-11-25T01:05:21.461Z,1007.22
2017-11-25T01:06:31.169Z,1007.14
2017-11-25T01:07:40.869Z,1007.11
2017-11-25T01:08:50.848Z,1007.08
2017-11-25T01:10:00.828Z,1007.04
2017-11-25T01:11:10.801Z,1007.08
2017-11-25T01:12:20.769Z,1007.11
2017-11-25T01:13:30.473Z,1007.14
2017-11-25T01:14:40.454Z,1007.12
2017-11-25T01:15:50.445Z,1007.13
2017-11-25T01:16:59.637Z,1007.09
2017-11-25T01:18:09.635Z,1007.08
2017-11-25T01:19:19.082Z,1007.07
2017-11-25T01:20:29.074Z,1007.06
2017-11-25T01:21:38.514Z,1007.02
2017-11-25T01:22:48.484Z,1006.98
2017-11-25T01:23:58.474Z,1006.89
2017-11-25T01:25:08.200Z,1006.89
2017-11-25T01:26:17.676Z,1006.84
2017-11-25T01:27:27.385Z,1006.79
2017-11-25T01:28:37.096Z,1006.81
2017-11-25T01:29:47.074Z,1006.82
2017-11-25T01:30:57.051Z,1006.81
2017-11-25T01:32:06.516Z,1006.81
2017-11-25T01:33:16.476Z,1006.83
2017-11-25T01:34:26.444Z,1006.84
2017-11-25T01:35:36.418Z,1006.81
2017-11-25T01:36:46.392Z,1006.8
2017-11-25T01:37:56.100Z,1006.79
2017-11-25T01:39:06.090Z,1006.77
2017-11-25T01:40:15.788Z,1006.72
2017-11-25T01:41:25.500Z,1006.67
2017-11-25T01:42:35.492Z,1006.68
2017-11-25T01:43:44.929Z,1006.6
2017-11-25T01:44:54.655Z,1006.53
2017-11-25T01:46:04.625Z,1006.51
2017-11-25T01:47:14.330Z,1006.51
2017-11-25T01:48:24.325Z,1006.51
2017-11-25T01:49:34.027Z,1006.52
2017-11-25T01:50:43.732Z,1006.56
2017-11-25T01:51:53.716Z,1006.56
2017-11-25T01:53:03.732Z,1006.65
2017-11-25T01:54:13.460Z,1006.61
2017-11-25T01:55:23.176Z,1006.62
2017-11-25T01:56:33.146Z,1006.62
2017-11-25T01:57:42.327Z,1006.7
2017-11-25T01:58:52.050Z,1006.71
2017-11-25T02:00:02.054Z,1006.71
2017-11-25T02:01:11.500Z,1006.69
2017-11-25T02:02:21.459Z,1006.68
2017-11-25T02:03:30.914Z,1006.68
2017-11-25T02:04:40.405Z,1006.66
2017-11-25T02:05:49.845Z,1006.68
2017-11-25T02:06:59.585Z,1006.64
2017-11-25T02:08:09.290Z,1006.67
2017-11-25T02:09:18.745Z,1006.67
2017-11-25T02:10:28.728Z,1006.61
2017-11-25T02:11:38.708Z,1006.51
2017-11-25T02:12:48.672Z,1006.47
2017-11-25T02:13:58.653Z,1006.5
2017-11-25T02:15:08.633Z,1006.49
2017-11-25T02:16:18.367Z,1006.52
2017-11-25T02:17:27.814Z,1006.47
2017-11-25T02:18:37.519Z,1006.44
2017-11-25T02:19:47.236Z,1006.47
2017-11-25T02:20:56.955Z,1006.5
2017-11-25T02:22:06.676Z,1006.47
2017-11-25T02:23:16.644Z,1006.45
2017-11-25T02:24:26.613Z,1006.45
2017-11-25T02:25:36.573Z,1006.43
2017-11-25T02:26:46.298Z,1006.44
2017-11-25T02:27:56.266Z,1006.43
2017-11-25T02:29:06.260Z,1006.41
2017-11-25T02:30:16.249Z,1006.38
2017-11-25T02:31:26.228Z,1006.33
2017-11-25T02:32:36.203Z,1006.35
2017-11-25T02:33:45.905Z,1006.34
2017-11-25T02:34:55.614Z,1006.32
2017-11-25T02:36:05.049Z,1006.26
2017-11-25T02:37:15.026Z,1006.28
2017-11-25T02:38:24.744Z,1006.23
2017-11-25T02:39:34.492Z,1006.21
2017-11-25T02:40:44.487Z,1006.17
2017-11-25T02:41:54.480Z,1006.22
2017-11-25T02:43:03.401Z,1006.22
2017-11-25T02:44:13.502Z,1006.18
2017-11-25T02:45:23.223Z,1006.11
2017-11-25T02:46:32.944Z,1006.1
2017-11-25T02:47:42.910Z,1006.03
2017-11-25T02:48:52.878Z,1005.98
2017-11-25T02:50:02.602Z,1005.98
2017-11-25T02:51:12.046Z,1005.94
2017-11-25T02:52:21.489Z,1005.91
2017-11-25T02:53:31.709Z,1005.9
2017-11-25T02:54:41.171Z,1005.88
2017-11-25T02:55:50.895Z,1005.84
2017-11-25T02:57:00.608Z,1005.87
2017-11-25T02:58:10.312Z,1005.84
2017-11-25T02:59:20.016Z,1005.86
2017-11-25T03:00:29.728Z,1005.8
2017-11-25T03:01:39.703Z,1005.72
2017-11-25T03:02:49.706Z,1005.69
2017-11-25T03:03:59.427Z,1005.69
2017-11-25T03:05:09.149Z,1005.67
2017-11-25T03:06:19.117Z,1005.66
2017-11-25T03:07:28.815Z,1005.67
2017-11-25T03:08:38.805Z,1005.65
2017-11-25T03:09:48.781Z,1005.61
2017-11-25T03:10:58.752Z,1005.62
2017-11-25T03:12:08.487Z,1005.61
2017-11-25T03:13:18.458Z,1005.53
2017-11-25T03:14:28.171Z,1005.45
2017-11-25T03:15:37.897Z,1005.41
2017-11-25T03:16:47.599Z,1005.38
2017-11-25T03:17:57.563Z,1005.36
2017-11-25T03:19:06.750Z,1005.31
2017-11-25T03:20:16.729Z,1005.28
2017-11-25T03:21:26.444Z,1005.29
2017-11-25T03:22:36.171Z,1005.25
2017-11-25T03:23:45.617Z,1005.24
2017-11-25T03:24:55.590Z,1005.18
2017-11-25T03:26:05.551Z,1005.14
2017-11-25T03:27:15.535Z,1005.08
2017-11-25T03:28:25.499Z,1005.02
2017-11-25T03:29:35.217Z,1004.97
2017-11-25T03:30:44.662Z,1005.02
2017-11-25T03:31:54.164Z,1005.03
2017-11-25T03:33:03.613Z,1005.06
2017-11-25T03:34:13.354Z,1005.06
2017-11-25T03:35:23.066Z,1005.03
2017-11-25T03:36:32.527Z,1005.03
2017-11-25T03:37:41.969Z,1005.01
2017-11-25T03:38:51.697Z,1005
2017-11-25T03:40:01.403Z,1004.9
2017-11-25T03:41:10.844Z,1004.88
2017-11-25T03:42:20.557Z,1004.9
2017-11-25T03:43:30.537Z,1004.89
2017-11-25T03:44:40.244Z,1004.91
2017-11-25T03:45:50.261Z,1004.91
2017-11-25T03:47:00.237Z,1004.95
2017-11-25T03:48:10.198Z,1004.91
2017-11-25T03:49:19.919Z,1004.96
2017-11-25T03:50:29.906Z,1004.89
2017-11-25T03:51:39.083Z,1004.85
2017-11-25T03:52:48.788Z,1004.87
2017-11-25T03:53:58.493Z,1004.87
2017-11-25T03:55:08.458Z,1004.86
2017-11-25T03:56:17.918Z,1004.86
2017-11-25T03:57:27.619Z,1004.82
2017-11-25T03:58:37.083Z,1004.8
2017-11-25T03:59:47.055Z,1004.79
2017-11-25T04:00:55.972Z,1004.78
2017-11-25T04:02:05.674Z,1004.84
2017-11-25T04:03:15.128Z,1004.85
2017-11-25T04:04:25.083Z,1004.89
2017-11-25T04:05:34.802Z,1004.87
2017-11-25T04:06:44.539Z,1004.89
2017-11-25T04:07:54.253Z,1004.81
2017-11-25T04:09:03.969Z,1004.75
2017-11-25T04:10:13.676Z,1004.74
2017-11-25T04:11:23.375Z,1004.72
2017-11-25T04:12:33.091Z,1004.67
2017-11-25T04:13:42.789Z,1004.61
2017-11-25T04:14:52.493Z,1004.55
2017-11-25T04:16:02.703Z,1004.52
2017-11-25T04:17:12.412Z,1004.52
2017-11-25T04:18:22.375Z,1004.42
2017-11-25T04:19:32.076Z,1004.35
2017-11-25T04:20:42.050Z,1004.34
2017-11-25T04:21:51.777Z,1004.27
2017-11-25T04:23:01.775Z,1004.2
2017-11-25T04:24:11.212Z,1004.16
2017-11-25T04:25:20.668Z,1004.16
2017-11-25T04:26:30.382Z,1004.17
2017-11-25T04:27:40.349Z,1004.23
2017-11-25T04:28:49.789Z,1004.26
2017-11-25T04:29:59.764Z,1004.26
2017-11-25T04:31:09.728Z,1004.24
2017-11-25T04:32:19.439Z,1004.21
2017-11-25T04:33:29.409Z,1004.27
2017-11-25T04:34:39.383Z,1004.29
2017-11-25T04:35:49.371Z,1004.28
2017-11-25T04:36:59.081Z,1004.31
2017-11-25T04:38:08.808Z,1004.27
2017-11-25T04:39:18.517Z,1004.27
2017-11-25T04:40:28.492Z,1004.24
2017-11-25T04:41:38.464Z,1004.22
2017-11-25T04:42:48.427Z,1004.14
2017-11-25T04:43:58.391Z,1004.07
2017-11-25T04:45:08.378Z,1004.05
2017-11-25T04:46:18.100Z,1004.04
2017-11-25T04:47:27.803Z,1004.07
2017-11-25T04:48:37.265Z,1004.02
2017-11-25T04:49:46.991Z,1003.95
2017-11-25T04:50:56.968Z,1003.95
2017-11-25T04:52:06.978Z,1003.95
2017-11-25T04:53:16.945Z,1003.88
2017-11-25T04:54:26.668Z,1003.81
2017-11-25T04:55:36.653Z,1003.8
2017-11-25T04:56:46.362Z,1003.76
2017-11-25T04:57:56.059Z,1003.78
2017-11-25T04:59:05.774Z,1003.75
2017-11-25T05:00:15.490Z,1003.72
2017-11-25T05:01:25.462Z,1003.64
2017-11-25T05:02:34.917Z,1003.66
2017-11-25T05:03:44.364Z,1003.68
2017-11-25T05:04:54.076Z,1003.7
2017-11-25T05:06:03.785Z,1003.67
2017-11-25T05:07:13.230Z,1003.63
2017-11-25T05:08:23.210Z,1003.63
2017-11-25T05:09:33.202Z,1003.65
2017-11-25T05:10:43.180Z,1003.66
2017-11-25T05:11:52.367Z,1003.64
2017-11-25T05:13:02.327Z,1003.6
2017-11-25T05:14:12.310Z,1003.63
2017-11-25T05:15:22.279Z,1003.54
2017-11-25T05:16:31.716Z,1003.55
2017-11-25T05:17:40.898Z,1003.51
2017-11-25T05:18:50.868Z,1003.51
2017-11-25T05:20:00.829Z,1003.49
2017-11-25T05:21:10.807Z,1003.45
2017-11-25T05:22:20.265Z,1003.47
2017-11-25T05:23:29.715Z,1003.44
2017-11-25T05:24:39.416Z,1003.44
2017-11-25T05:25:49.113Z,1003.41
2017-11-25T05:26:58.833Z,1003.41
2017-11-25T05:28:08.812Z,1003.41
2017-11-25T05:29:18.528Z,1003.44
2017-11-25T05:30:28.495Z,1003.38
2017-11-25T05:31:38.468Z,1003.4
2017-11-25T05:32:47.917Z,1003.4
2017-11-25T05:33:57.620Z,1003.38
2017-11-25T05:35:07.355Z,1003.38
2017-11-25T05:36:17.073Z,1003.34
2017-11-25T05:37:27.054Z,1003.41
2017-11-25T05:38:37.033Z,1003.36
2017-11-25T05:39:47.015Z,1003.36
2017-11-25T05:40:56.985Z,1003.36
2017-11-25T05:42:06.431Z,1003.39
2017-11-25T05:43:16.395Z,1003.3
2017-11-25T05:44:26.362Z,1003.28
2017-11-25T05:45:35.810Z,1003.21
2017-11-25T05:46:45.768Z,1003.15
2017-11-25T05:47:55.732Z,1003.09
2017-11-25T05:49:05.700Z,1003.09
2017-11-25T05:50:15.679Z,1003.08
2017-11-25T05:51:25.140Z,1003.03
2017-11-25T05:52:35.126Z,1003.01
2017-11-25T05:53:45.101Z,1003.03
2017-11-25T05:54:55.062Z,1003.01
2017-11-25T05:56:04.770Z,1003.03
2017-11-25T05:57:14.486Z,1003.04
2017-11-25T05:58:24.205Z,1003
2017-11-25T05:59:33.909Z,1003
2017-11-25T06:00:43.896Z,1002.96
2017-11-25T06:01:53.863Z,1002.97
2017-11-25T06:03:03.832Z,1002.94
2017-11-25T06:04:13.550Z,1002.92
2017-11-25T06:05:22.735Z,1002.97
2017-11-25T06:06:32.449Z,1002.97
2017-11-25T06:07:41.890Z,1002.97
2017-11-25T06:08:51.928Z,1002.99
2017-11-25T06:10:01.906Z,1002.97
2017-11-25T06:11:11.602Z,1002.96
2017-11-25T06:12:21.050Z,1002.94
2017-11-25T06:13:30.761Z,1002.94
2017-11-25T06:14:40.471Z,1002.89
2017-11-25T06:15:50.175Z,1002.87
2017-11-25T06:16:59.882Z,1002.86
2017-11-25T06:18:09.593Z,1002.81
2017-11-25T06:19:19.292Z,1002.77
2017-11-25T06:20:28.731Z,1002.77
2017-11-25T06:21:38.432Z,1002.74
2017-11-25T06:22:48.136Z,1002.73
2017-11-25T06:23:58.110Z,1002.71
2017-11-25T06:25:08.074Z,1002.72
2017-11-25T06:26:17.781Z,1002.7
2017-11-25T06:27:27.485Z,1002.76
2017-11-25T06:28:37.458Z,1002.73
2017-11-25T06:29:46.902Z,1002.75
2017-11-25T06:30:56.616Z,1002.72
2017-11-25T06:32:06.585Z,1002.7
2017-11-25T06:33:16.305Z,1002.65
2017-11-25T06:34:26.005Z,1002.61
2017-11-25T06:35:35.701Z,1002.62
2017-11-25T06:36:45.412Z,1002.52
2017-11-25T06:37:55.114Z,1002.5
2017-11-25T06:39:04.568Z,1002.47
2017-11-25T06:40:13.746Z,1002.46
2017-11-25T06:41:23.709Z,1002.43
2017-11-25T06:42:33.411Z,1002.42
2017-11-25T06:43:43.418Z,1002.36
2017-11-25T06:44:53.126Z,1002.36
2017-11-25T06:46:03.094Z,1002.32
2017-11-25T06:47:13.075Z,1002.32
2017-11-25T06:48:23.123Z,1002.3
2017-11-25T06:49:32.829Z,1002.26
2017-11-25T06:50:42.808Z,1002.2
2017-11-25T06:51:52.250Z,1002.2
2017-11-25T06:53:01.439Z,1002.16
2017-11-25T06:54:10.882Z,1002.16
2017-11-25T06:55:20.865Z,1002.12
2017-11-25T06:56:30.584Z,1002.07
2017-11-25T06:57:40.017Z,1002.06
2017-11-25T06:58:49.470Z,1002.02
2017-11-25T06:59:58.932Z,1002.01
2017-11-25T07:01:08.372Z,1001.96
2017-11-25T07:02:18.351Z,1001.96
2017-11-25T07:03:28.352Z,1001.88
2017-11-25T07:04:38.320Z,1001.9
2017-11-25T07:05:48.294Z,1001.9
2017-11-25T07:06:58.255Z,1001.89
2017-11-25T07:08:08.243Z,1001.82
2017-11-25T07:09:18.242Z,1001.83
2017-11-25T07:10:27.953Z,1001.81
2017-11-25T07:11:37.693Z,1001.79
2017-11-25T07:12:47.409Z,1001.76
2017-11-25T07:13:57.377Z,1001.81
2017-11-25T07:15:07.391Z,1001.78
2017-11-25T07:16:17.108Z,1001.71
2017-11-25T07:17:27.069Z,1001.69
2017-11-25T07:18:37.037Z,1001.65
2017-11-25T07:19:46.764Z,1001.6
2017-11-25T07:20:56.765Z,1001.62
2017-11-25T07:22:06.729Z,1001.6
2017-11-25T07:23:16.443Z,1001.61
2017-11-25T07:24:26.144Z,1001.61
2017-11-25T07:25:35.589Z,1001.59
2017-11-25T07:26:45.291Z,1001.63
2017-11-25T07:27:55.258Z,1001.65
2017-11-25T07:29:04.961Z,1001.62
2017-11-25T07:30:14.407Z,1001.58
2017-11-25T07:31:24.138Z,1001.62
2017-11-25T07:32:34.126Z,1001.57
2017-11-25T07:33:43.823Z,1001.55
2017-11-25T07:34:53.799Z,1001.56
2017-11-25T07:36:03.785Z,1001.54
2017-11-25T07:37:13.494Z,1001.47
2017-11-25T07:38:23.482Z,1001.4
2017-11-25T07:39:33.438Z,1001.34
2017-11-25T07:40:43.413Z,1001.32
2017-11-25T07:41:53.118Z,1001.28
2017-11-25T07:43:03.088Z,1001.23
2017-11-25T07:44:13.061Z,1001.25
2017-11-25T07:45:22.507Z,1001.18
2017-11-25T07:46:32.482Z,1001.12
2017-11-25T07:47:42.220Z,1001.13
2017-11-25T07:48:51.674Z,1001.08
2017-11-25T07:50:01.111Z,1001.06
2017-11-25T07:51:10.587Z,1001.05
2017-11-25T07:52:20.252Z,1001.04
2017-11-25T07:53:30.260Z,1001.02
2017-11-25T07:54:39.722Z,1000.96
2017-11-25T07:55:49.436Z,1000.93
2017-11-25T07:56:58.886Z,1000.95
2017-11-25T07:58:08.869Z,1000.95
2017-11-25T07:59:19.426Z,1000.95
2017-11-25T08:00:29.135Z,1000.93
2017-11-25T08:01:38.847Z,1001.02
2017-11-25T08:02:48.812Z,1001.08
2017-11-25T08:03:58.524Z,1001.02
2017-11-25T08:05:08.257Z,1001.07
2017-11-25T08:06:17.700Z,1001.04
2017-11-25T08:07:27.400Z,1001.02
2017-11-25T08:08:37.107Z,1000.97
2017-11-25T08:09:47.081Z,1001.04
2017-11-25T08:10:56.792Z,1001.06
2017-11-25T08:12:06.234Z,1001
2017-11-25T08:13:15.937Z,1001.02
2017-11-25T08:14:25.909Z,1000.98
2017-11-25T08:15:35.880Z,1000.93
2017-11-25T08:16:45.576Z,1000.89
2017-11-25T08:17:54.771Z,1000.81
2017-11-25T08:19:04.743Z,1000.79
2017-11-25T08:20:14.446Z,1000.76
2017-11-25T08:21:24.166Z,1000.72
2017-11-25T08:22:34.141Z,1000.65
2017-11-25T08:23:44.119Z,1000.62
2017-11-25T08:24:53.821Z,1000.62
2017-11-25T08:26:03.552Z,1000.63
2017-11-25T08:27:13.019Z,1000.63
2017-11-25T08:28:23.007Z,1000.57
2017-11-25T08:29:32.997Z,1000.55
2017-11-25T08:30:42.437Z,1000.54
2017-11-25T08:31:52.401Z,1000.43
2017-11-25T08:33:01.870Z,1000.46
2017-11-25T08:34:11.841Z,1000.47
2017-11-25T08:35:21.582Z,1000.46
2017-11-25T08:36:31.306Z,1000.44
2017-11-25T08:37:41.019Z,1000.44
2017-11-25T08:38:50.995Z,1000.45
2017-11-25T08:40:00.964Z,1000.41
2017-11-25T08:41:10.954Z,1000.34
2017-11-25T08:42:20.933Z,1000.3
2017-11-25T08:43:30.906Z,1000.31
2017-11-25T08:44:40.929Z,1000.33
2017-11-25T08:45:50.645Z,1000.31
2017-11-25T08:47:00.086Z,1000.29
2017-11-25T08:48:09.796Z,1000.32
2017-11-25T08:49:19.788Z,1000.25
2017-11-25T08:50:29.248Z,1000.23
2017-11-25T08:51:39.214Z,1000.25
2017-11-25T08:52:48.937Z,1000.27
2017-11-25T08:53:58.129Z,1000.26
2017-11-25T08:55:07.577Z,1000.27
2017-11-25T08:56:17.287Z,1000.29
2017-11-25T08:57:27.265Z,1000.31
2017-11-25T08:58:37.229Z,1000.33
2017-11-25T08:59:46.956Z,1000.3
2017-11-25T09:00:56.675Z,1000.33
2017-11-25T09:02:06.387Z,1000.31
2017-11-25T09:03:16.093Z,1000.32
2017-11-25T09:04:25.795Z,1000.39
2017-11-25T09:05:35.775Z,1000.42
2017-11-25T09:06:45.753Z,1000.39
2017-11-25T09:07:55.457Z,1000.41
2017-11-25T09:09:05.456Z,1000.35
2017-11-25T09:10:15.163Z,1000.44
2017-11-25T09:11:25.136Z,1000.43
2017-11-25T09:12:34.859Z,1000.43
2017-11-25T09:13:44.310Z,1000.49
2017-11-25T09:14:54.290Z,1000.42
2017-11-25T09:16:04.257Z,1000.38
2017-11-25T09:17:14.230Z,1000.4
2017-11-25T09:18:23.684Z,1000.38
2017-11-25T09:19:33.130Z,1000.39
2017-11-25T09:20:43.096Z,1000.43
2017-11-25T09:21:52.805Z,1000.44
2017-11-25T09:23:02.517Z,1000.43
2017-11-25T09:24:12.223Z,1000.39
2017-11-25T09:25:22.204Z,1000.39
2017-11-25T09:26:32.184Z,1000.36
2017-11-25T09:27:41.897Z,1000.34
2017-11-25T09:28:51.362Z,1000.32
2017-11-25T09:30:01.069Z,1000.32
2017-11-25T09:31:11.063Z,1000.34
2017-11-25T09:32:21.063Z,1000.28
2017-11-25T09:33:31.051Z,1000.31
2017-11-25T09:34:40.520Z,1000.27
2017-11-25T09:35:50.249Z,1000.28
2017-11-25T09:37:00.217Z,1000.25
2017-11-25T09:38:10.201Z,1000.24
2017-11-25T09:39:19.648Z,1000.2
2017-11-25T09:40:29.620Z,1000.26
2017-11-25T09:41:39.604Z,1000.23
2017-11-25T09:42:49.349Z,1000.19
2017-11-25T09:43:59.337Z,1000.2
2017-11-25T09:45:09.069Z,1000.14
2017-11-25T09:46:18.747Z,1000.12
2017-11-25T09:47:28.452Z,1000.13
2017-11-25T09:48:38.170Z,1000.08
2017-11-25T09:49:48.166Z,1000.05
2017-11-25T09:50:57.625Z,1000.04
2017-11-25T09:52:07.655Z,1000.04
2017-11-25T09:53:17.624Z,1000.03
2017-11-25T09:54:27.603Z,1000.01
2017-11-25T09:55:37.049Z,999.99
2017-11-25T09:56:46.756Z,1000.02
2017-11-25T09:57:55.937Z,999.97
2017-11-25T09:59:05.921Z,999.98
2017-11-25T10:00:15.638Z,1000.01
2017-11-25T10:01:25.365Z,1000.01
2017-11-25T10:02:34.817Z,999.97
2017-11-25T10:03:44.529Z,999.95
2017-11-25T10:04:54.258Z,999.94
2017-11-25T10:06:03.968Z,999.93
2017-11-25T10:07:13.425Z,999.93
2017-11-25T10:08:22.885Z,999.93
2017-11-25T10:09:32.835Z,999.99
2017-11-25T10:10:42.014Z,999.98
2017-11-25T10:11:51.461Z,999.99
2017-11-25T10:13:01.193Z,999.95
2017-11-25T10:14:11.201Z,999.92
2017-11-25T10:15:20.925Z,999.92
2017-11-25T10:16:30.672Z,999.91
2017-11-25T10:17:40.670Z,999.9
2017-11-25T10:18:50.112Z,999.87
2017-11-25T10:19:59.838Z,999.88
2017-11-25T10:21:09.537Z,999.83
2017-11-25T10:22:19.251Z,999.84
2017-11-25T10:23:28.688Z,999.84
2017-11-25T10:24:37.870Z,999.83
2017-11-25T10:25:47.575Z,999.88
2017-11-25T10:26:57.298Z,999.85
2017-11-25T10:28:06.770Z,999.82
2017-11-25T10:29:16.767Z,999.89
2017-11-25T10:30:26.222Z,999.85
2017-11-25T10:31:35.970Z,999.85
2017-11-25T10:32:45.677Z,999.82
2017-11-25T10:33:55.391Z,999.86
2017-11-25T10:35:05.369Z,999.79
2017-11-25T10:36:15.334Z,999.82
2017-11-25T10:37:25.347Z,999.88
2017-11-25T10:38:34.801Z,999.89
2017-11-25T10:39:44.264Z,999.87
2017-11-25T10:40:54.241Z,999.83
2017-11-25T10:42:03.696Z,999.84
2017-11-25T10:43:13.669Z,999.86
2017-11-25T10:44:23.378Z,999.85
2017-11-25T10:45:33.344Z,999.83
2017-11-25T10:46:43.086Z,999.88
2017-11-25T10:47:52.534Z,999.91
2017-11-25T10:49:02.230Z,1000
2017-11-25T10:50:11.676Z,999.91
2017-11-25T10:51:21.125Z,999.95
2017-11-25T10:52:30.829Z,999.91
2017-11-25T10:53:40.816Z,999.91
2017-11-25T10:54:50.525Z,999.97
2017-11-25T10:55:59.989Z,999.99
2017-11-25T10:57:09.970Z,1000.06
2017-11-25T10:58:19.962Z,1000.04
2017-11-25T10:59:29.940Z,1000.07
2017-11-25T11:00:39.650Z,1000.04
2017-11-25T11:01:49.641Z,1000.08
2017-11-25T11:02:59.377Z,1000.01
2017-11-25T11:04:08.573Z,1000.08
2017-11-25T11:05:17.776Z,999.95
2017-11-25T11:06:27.741Z,999.95
2017-11-25T11:07:37.465Z,999.95
2017-11-25T11:08:47.180Z,999.85
2017-11-25T11:09:57.153Z,999.92
2017-11-25T11:11:07.144Z,999.92
2017-11-25T11:12:16.906Z,999.97
2017-11-25T11:13:26.605Z,999.95
2017-11-25T11:14:36.311Z,1000.06
2017-11-25T11:15:46.033Z,1000.01
2017-11-25T11:16:55.502Z,1000
2017-11-25T11:18:05.478Z,1000.01
2017-11-25T11:19:15.199Z,999.95
2017-11-25T11:20:25.160Z,999.97
2017-11-25T11:21:35.155Z,999.99
2017-11-25T11:22:45.166Z,999.97
2017-11-25T11:23:55.133Z,999.98
2017-11-25T11:25:04.847Z,999.96
2017-11-25T11:26:14.317Z,999.84
2017-11-25T11:27:24.308Z,999.91
2017-11-25T11:28:34.022Z,999.96
2017-11-25T11:29:43.750Z,999.95
2017-11-25T11:30:53.740Z,999.88
2017-11-25T11:32:03.716Z,999.91
2017-11-25T11:33:13.441Z,999.97
2017-11-25T11:34:22.894Z,999.97
2017-11-25T11:35:32.639Z,999.96
2017-11-25T11:36:42.626Z,999.96
2017-11-25T11:37:52.599Z,999.91
2017-11-25T11:39:02.581Z,1000.03
2017-11-25T11:40:12.043Z,999.97
2017-11-25T11:41:21.771Z,1000.05
2017-11-25T11:42:31.743Z,1000.03
2017-11-25T11:43:41.734Z,1000.12
2017-11-25T11:44:51.442Z,1000.09
2017-11-25T11:46:00.889Z,1000.13
2017-11-25T11:47:10.335Z,1000.13
2017-11-25T11:48:20.335Z,1000.12
2017-11-25T11:49:30.068Z,1000.08
2017-11-25T11:50:39.785Z,1000.03
2017-11-25T11:51:49.765Z,1000.04
2017-11-25T11:52:59.979Z,1000.05
2017-11-25T11:54:10.031Z,1000.01
2017-11-25T11:55:19.760Z,999.93
2017-11-25T11:56:29.481Z,999.96
2017-11-25T11:57:39.458Z,1000.01
2017-11-25T11:58:49.433Z,999.99
2017-11-25T11:59:59.411Z,1000.02
2017-11-25T12:01:09.128Z,1000.01
2017-11-25T12:02:18.051Z,1000.01
2017-11-25T12:03:28.033Z,1000.07
2017-11-25T12:04:38.001Z,1000.08
2017-11-25T12:05:47.698Z,1000.13
2017-11-25T12:06:57.680Z,1000.13
2017-11-25T12:08:07.121Z,1000.14
2017-11-25T12:09:17.093Z,1000.19
2017-11-25T12:10:27.055Z,1000.15
2017-11-25T12:11:36.794Z,1000.09
2017-11-25T12:12:46.488Z,1000.14
2017-11-25T12:13:56.467Z,1000.2
2017-11-25T12:15:06.197Z,1000.09
2017-11-25T12:16:15.381Z,1000.21
2017-11-25T12:17:24.834Z,1000.24
2017-11-25T12:18:34.545Z,1000.31
2017-11-25T12:19:44.551Z,1000.39
2017-11-25T12:20:54.276Z,1000.41
2017-11-25T12:22:03.733Z,1000.43
2017-11-25T12:23:12.959Z,1000.44
2017-11-25T12:24:22.929Z,1000.38
2017-11-25T12:25:32.900Z,1000.38
2017-11-25T12:26:42.898Z,1000.43
2017-11-25T12:27:52.873Z,1000.37
2017-11-25T12:29:02.602Z,1000.32
2017-11-25T12:30:12.063Z,1000.34
2017-11-25T12:31:22.045Z,1000.34
2017-11-25T12:32:31.760Z,1000.41
2017-11-25T12:33:41.737Z,1000.36
2017-11-25T12:34:51.459Z,1000.41
2017-11-25T12:36:00.908Z,1000.41
2017-11-25T12:37:10.939Z,1000.44
2017-11-25T12:38:20.939Z,1000.47
2017-11-25T12:39:30.936Z,1000.44
2017-11-25T12:40:40.387Z,1000.36
2017-11-25T12:41:50.106Z,1000.35
2017-11-25T12:42:59.812Z,1000.31
2017-11-25T12:44:09.537Z,1000.24
2017-11-25T12:45:18.992Z,1000.33
2017-11-25T12:46:28.978Z,1000.34
2017-11-25T12:47:38.688Z,1000.37
2017-11-25T12:48:48.155Z,1000.37
2017-11-25T12:49:58.131Z,1000.48
2017-11-25T12:51:08.114Z,1000.51
2017-11-25T12:52:18.096Z,1000.5
2017-11-25T12:53:27.809Z,1000.51
2017-11-25T12:54:37.280Z,1000.51
2017-11-25T12:55:47.266Z,1000.55
2017-11-25T12:56:56.611Z,1000.52
2017-11-25T12:58:05.794Z,1000.5
2017-11-25T12:59:15.779Z,1000.51
2017-11-25T13:00:25.472Z,1000.5
2017-11-25T13:01:35.458Z,1000.49
2017-11-25T13:02:45.439Z,1000.45
2017-11-25T13:03:55.421Z,1000.58
2017-11-25T13:05:05.396Z,1000.64
2017-11-25T13:06:15.102Z,1000.65
2017-11-25T13:07:24.560Z,1000.62
2017-11-25T13:08:34.272Z,1000.65
2017-11-25T13:09:44.265Z,1000.58
2017-11-25T13:10:53.742Z,1000.58
2017-11-25T13:12:03.722Z,1000.64
2017-11-25T13:13:13.706Z,1000.62
2017-11-25T13:14:23.411Z,1000.62
2017-11-25T13:15:33.136Z,1000.63
2017-11-25T13:16:42.852Z,1000.59
2017-11-25T13:17:52.815Z,1000.62
2017-11-25T13:19:02.538Z,1000.59
2017-11-25T13:20:12.256Z,1000.59
2017-11-25T13:21:22.223Z,1000.61
2017-11-25T13:22:31.938Z,1000.59
2017-11-25T13:23:41.637Z,1000.63
2017-11-25T13:24:51.361Z,1000.68
2017-11-25T13:26:00.821Z,1000.72
2017-11-25T13:27:10.536Z,1000.69
2017-11-25T13:28:20.509Z,1000.76
2017-11-25T13:29:29.962Z,1000.8
2017-11-25T13:30:39.937Z,1000.84
2017-11-25T13:31:49.649Z,1000.83
2017-11-25T13:32:59.635Z,1000.81
2017-11-25T13:34:09.616Z,1000.82
2017-11-25T13:35:19.588Z,1000.78
2017-11-25T13:36:29.545Z,1000.81
2017-11-25T13:37:39.259Z,1000.86
2017-11-25T13:38:49.229Z,1000.87
2017-11-25T13:39:59.211Z,1000.94
2017-11-25T13:41:08.922Z,1000.95
2017-11-25T13:42:18.902Z,1000.98
2017-11-25T13:43:28.877Z,1001.01
2017-11-25T13:44:38.576Z,1001.08
2017-11-25T13:45:48.277Z,1001.07
2017-11-25T13:46:58.000Z,1001.18
2017-11-25T13:48:07.724Z,1001.31
2017-11-25T13:49:17.186Z,1001.35
2017-11-25T13:50:26.638Z,1001.34
2017-11-25T13:51:36.358Z,1001.37
2017-11-25T13:52:46.347Z,1001.41
2017-11-25T13:53:56.066Z,1001.4
2017-11-25T13:55:05.511Z,1001.38
2017-11-25T13:56:15.500Z,1001.43
2017-11-25T13:57:25.214Z,1001.41
2017-11-25T13:58:34.928Z,1001.38
2017-11-25T13:59:44.367Z,1001.42
2017-11-25T14:00:54.339Z,1001.39
2017-11-25T14:02:04.314Z,1001.37
2017-11-25T14:03:14.020Z,1001.42
2017-11-25T14:04:23.722Z,1001.33
2017-11-25T14:05:33.455Z,1001.36
2017-11-25T14:06:43.454Z,1001.37
2017-11-25T14:07:53.422Z,1001.39
2017-11-25T14:09:03.401Z,1001.43